sensor_id;sensor_type;location;lat;lon;timestamp;P1;durP1;ratioP1;P2;durP2;ratioP2
13607;SDS011;6875;50.852;5.672;2024-02-23T00:01:50;4.57;;;1.37;;
13607;SDS011;6875;50.852;5.672;2024-02-23T00:04:17;2.57;;;1.23;;
13607;SDS011;6875;50.852;5.672;2024-02-23T00:06:44;4.90;;;1.90;;
13607;SDS011;6875;50.852;5.672;2024-02-23T00:09:11;3.33;;;1.40;;
13607;SDS011;6875;50.852;5.672;2024-02-23T00:11:38;5.40;;;2.10;;
13607;SDS011;6875;50.852;5.672;2024-02-23T00:14:10;5.83;;;2.00;;
13607;SDS011;6875;50.852;5.672;2024-02-23T00:16:38;5.77;;;1.93;;
13607;SDS011;6875;50.852;5.672;2024-02-23T00:19:06;6.40;;;2.40;;
13607;SDS011;6875;50.852;5.672;2024-02-23T00:21:34;4.70;;;2.50;;
13607;SDS011;6875;50.852;5.672;2024-02-23T00:24:00;5.97;;;2.50;;
13607;SDS011;6875;50.852;5.672;2024-02-23T00:26:27;5.50;;;2.43;;
13607;SDS011;6875;50.852;5.672;2024-02-23T00:28:54;7.90;;;3.40;;
13607;SDS011;6875;50.852;5.672;2024-02-23T00:31:22;6.43;;;2.57;;
13607;SDS011;6875;50.852;5.672;2024-02-23T00:33:48;7.23;;;2.80;;
13607;SDS011;6875;50.852;5.672;2024-02-23T00:36:15;9.53;;;3.50;;
13607;SDS011;6875;50.852;5.672;2024-02-23T00:38:42;9.83;;;3.40;;
13607;SDS011;6875;50.852;5.672;2024-02-23T00:41:08;4.80;;;2.57;;
13607;SDS011;6875;50.852;5.672;2024-02-23T00:43:37;6.80;;;3.03;;
13607;SDS011;6875;50.852;5.672;2024-02-23T00:46:04;8.07;;;3.13;;
13607;SDS011;6875;50.852;5.672;2024-02-23T00:48:32;7.53;;;2.93;;
13607;SDS011;6875;50.852;5.672;2024-02-23T00:50:59;6.13;;;2.93;;
13607;SDS011;6875;50.852;5.672;2024-02-23T00:53:26;7.90;;;2.87;;
13607;SDS011;6875;50.852;5.672;2024-02-23T00:55:53;5.30;;;2.87;;
13607;SDS011;6875;50.852;5.672;2024-02-23T00:58:19;8.23;;;2.60;;
13607;SDS011;6875;50.852;5.672;2024-02-23T01:00:46;6.90;;;2.20;;
13607;SDS011;6875;50.852;5.672;2024-02-23T01:03:12;4.90;;;2.57;;
13607;SDS011;6875;50.852;5.672;2024-02-23T01:05:40;3.90;;;2.17;;
13607;SDS011;6875;50.852;5.672;2024-02-23T01:08:07;6.97;;;2.40;;
13607;SDS011;6875;50.852;5.672;2024-02-23T01:10:34;3.33;;;2.07;;
13607;SDS011;6875;50.852;5.672;2024-02-23T01:13:00;3.43;;;1.90;;
13607;SDS011;6875;50.852;5.672;2024-02-23T01:15:27;7.27;;;1.70;;
13607;SDS011;6875;50.852;5.672;2024-02-23T01:17:53;8.07;;;2.00;;
13607;SDS011;6875;50.852;5.672;2024-02-23T01:20:21;3.27;;;1.30;;
13607;SDS011;6875;50.852;5.672;2024-02-23T01:22:49;5.33;;;1.60;;
13607;SDS011;6875;50.852;5.672;2024-02-23T01:25:16;5.67;;;1.47;;
13607;SDS011;6875;50.852;5.672;2024-02-23T01:27:42;5.13;;;1.50;;
13607;SDS011;6875;50.852;5.672;2024-02-23T01:30:10;3.77;;;1.30;;
13607;SDS011;6875;50.852;5.672;2024-02-23T01:32:37;5.70;;;1.40;;
13607;SDS011;6875;50.852;5.672;2024-02-23T01:35:04;4.30;;;1.40;;
13607;SDS011;6875;50.852;5.672;2024-02-23T01:37:32;3.83;;;1.60;;
13607;SDS011;6875;50.852;5.672;2024-02-23T01:40:00;5.83;;;1.30;;
13607;SDS011;6875;50.852;5.672;2024-02-23T01:42:27;3.47;;;1.17;;
13607;SDS011;6875;50.852;5.672;2024-02-23T01:44:54;11.33;;;1.80;;
13607;SDS011;6875;50.852;5.672;2024-02-23T01:47:21;4.07;;;1.60;;
13607;SDS011;6875;50.852;5.672;2024-02-23T01:49:48;6.50;;;1.20;;
13607;SDS011;6875;50.852;5.672;2024-02-23T01:52:16;7.53;;;1.73;;
13607;SDS011;6875;50.852;5.672;2024-02-23T01:54:42;5.33;;;1.30;;
13607;SDS011;6875;50.852;5.672;2024-02-23T01:57:11;3.93;;;1.07;;
13607;SDS011;6875;50.852;5.672;2024-02-23T01:59:38;6.47;;;1.40;;
13607;SDS011;6875;50.852;5.672;2024-02-23T02:02:05;4.77;;;1.10;;
13607;SDS011;6875;50.852;5.672;2024-02-23T02:04:31;6.40;;;1.33;;
13607;SDS011;6875;50.852;5.672;2024-02-23T02:06:58;5.50;;;1.33;;
13607;SDS011;6875;50.852;5.672;2024-02-23T02:09:26;5.43;;;1.17;;
13607;SDS011;6875;50.852;5.672;2024-02-23T02:11:52;8.23;;;2.37;;
13607;SDS011;6875;50.852;5.672;2024-02-23T02:14:20;3.70;;;1.10;;
13607;SDS011;6875;50.852;5.672;2024-02-23T02:16:47;3.07;;;1.07;;
13607;SDS011;6875;50.852;5.672;2024-02-23T02:19:14;3.03;;;1.00;;
13607;SDS011;6875;50.852;5.672;2024-02-23T02:21:41;1.73;;;1.00;;
13607;SDS011;6875;50.852;5.672;2024-02-23T02:24:07;6.57;;;1.30;;
13607;SDS011;6875;50.852;5.672;2024-02-23T02:26:34;3.53;;;1.00;;
13607;SDS011;6875;50.852;5.672;2024-02-23T02:29:02;7.67;;;2.00;;
13607;SDS011;6875;50.852;5.672;2024-02-23T02:31:30;5.57;;;1.00;;
13607;SDS011;6875;50.852;5.672;2024-02-23T02:34:02;3.27;;;1.30;;
13607;SDS011;6875;50.852;5.672;2024-02-23T02:36:28;4.93;;;1.63;;
13607;SDS011;6875;50.852;5.672;2024-02-23T02:38:55;3.93;;;1.37;;
13607;SDS011;6875;50.852;5.672;2024-02-23T02:41:22;2.37;;;1.00;;
13607;SDS011;6875;50.852;5.672;2024-02-23T02:43:50;3.63;;;0.90;;
13607;SDS011;6875;50.852;5.672;2024-02-23T02:46:16;5.30;;;1.10;;
13607;SDS011;6875;50.852;5.672;2024-02-23T02:48:44;2.87;;;1.10;;
13607;SDS011;6875;50.852;5.672;2024-02-23T02:51:11;5.07;;;1.10;;
13607;SDS011;6875;50.852;5.672;2024-02-23T02:53:38;7.20;;;1.50;;
13607;SDS011;6875;50.852;5.672;2024-02-23T02:56:05;3.80;;;1.37;;
13607;SDS011;6875;50.852;5.672;2024-02-23T02:58:32;3.77;;;1.20;;
13607;SDS011;6875;50.852;5.672;2024-02-23T03:00:58;4.93;;;1.27;;
13607;SDS011;6875;50.852;5.672;2024-02-23T03:03:25;6.83;;;1.50;;
13607;SDS011;6875;50.852;5.672;2024-02-23T03:05:53;2.57;;;1.30;;
13607;SDS011;6875;50.852;5.672;2024-02-23T03:08:19;6.17;;;1.43;;
13607;SDS011;6875;50.852;5.672;2024-02-23T03:10:46;4.80;;;1.77;;
13607;SDS011;6875;50.852;5.672;2024-02-23T03:13:13;8.67;;;2.17;;
13607;SDS011;6875;50.852;5.672;2024-02-23T03:15:40;9.23;;;2.37;;
13607;SDS011;6875;50.852;5.672;2024-02-23T03:18:07;5.77;;;1.50;;
13607;SDS011;6875;50.852;5.672;2024-02-23T03:20:34;5.13;;;1.63;;
13607;SDS011;6875;50.852;5.672;2024-02-23T03:23:02;7.00;;;1.70;;
13607;SDS011;6875;50.852;5.672;2024-02-23T03:25:29;4.57;;;2.00;;
13607;SDS011;6875;50.852;5.672;2024-02-23T03:27:57;4.80;;;1.73;;
13607;SDS011;6875;50.852;5.672;2024-02-23T03:30:24;5.63;;;1.87;;
13607;SDS011;6875;50.852;5.672;2024-02-23T03:32:50;4.93;;;1.70;;
13607;SDS011;6875;50.852;5.672;2024-02-23T03:35:17;4.47;;;1.50;;
13607;SDS011;6875;50.852;5.672;2024-02-23T03:37:44;5.93;;;1.70;;
13607;SDS011;6875;50.852;5.672;2024-02-23T03:40:12;4.60;;;1.63;;
13607;SDS011;6875;50.852;5.672;2024-02-23T03:42:39;7.40;;;1.30;;
13607;SDS011;6875;50.852;5.672;2024-02-23T03:45:05;5.50;;;1.33;;
13607;SDS011;6875;50.852;5.672;2024-02-23T03:47:32;2.90;;;1.40;;
13607;SDS011;6875;50.852;5.672;2024-02-23T03:49:58;5.23;;;1.47;;
13607;SDS011;6875;50.852;5.672;2024-02-23T03:52:25;4.40;;;1.33;;
13607;SDS011;6875;50.852;5.672;2024-02-23T03:54:51;7.63;;;1.37;;
13607;SDS011;6875;50.852;5.672;2024-02-23T03:57:21;9.83;;;1.83;;
13607;SDS011;6875;50.852;5.672;2024-02-23T03:59:53;2.00;;;1.50;;
13607;SDS011;6875;50.852;5.672;2024-02-23T04:02:20;5.53;;;1.57;;
13607;SDS011;6875;50.852;5.672;2024-02-23T04:04:47;6.30;;;1.43;;
13607;SDS011;6875;50.852;5.672;2024-02-23T04:07:15;3.97;;;1.60;;
13607;SDS011;6875;50.852;5.672;2024-02-23T04:09:42;6.93;;;1.80;;
13607;SDS011;6875;50.852;5.672;2024-02-23T04:12:08;7.97;;;2.13;;
13607;SDS011;6875;50.852;5.672;2024-02-23T04:14:36;10.30;;;2.03;;
13607;SDS011;6875;50.852;5.672;2024-02-23T04:17:03;2.53;;;1.30;;
13607;SDS011;6875;50.852;5.672;2024-02-23T04:19:29;8.13;;;1.70;;
13607;SDS011;6875;50.852;5.672;2024-02-23T04:21:56;3.50;;;1.63;;
13607;SDS011;6875;50.852;5.672;2024-02-23T04:24:23;4.80;;;1.40;;
13607;SDS011;6875;50.852;5.672;2024-02-23T04:26:49;5.83;;;2.40;;
13607;SDS011;6875;50.852;5.672;2024-02-23T04:29:16;5.10;;;1.60;;
13607;SDS011;6875;50.852;5.672;2024-02-23T04:31:43;4.30;;;1.57;;
13607;SDS011;6875;50.852;5.672;2024-02-23T04:34:10;4.50;;;1.77;;
13607;SDS011;6875;50.852;5.672;2024-02-23T04:36:37;4.50;;;1.63;;
13607;SDS011;6875;50.852;5.672;2024-02-23T04:39:03;6.03;;;1.80;;
13607;SDS011;6875;50.852;5.672;2024-02-23T04:41:30;6.00;;;1.83;;
13607;SDS011;6875;50.852;5.672;2024-02-23T04:43:56;7.13;;;1.80;;
13607;SDS011;6875;50.852;5.672;2024-02-23T04:46:25;6.40;;;1.83;;
13607;SDS011;6875;50.852;5.672;2024-02-23T04:48:53;3.00;;;1.57;;
13607;SDS011;6875;50.852;5.672;2024-02-23T04:51:19;6.67;;;1.87;;
13607;SDS011;6875;50.852;5.672;2024-02-23T04:53:47;12.70;;;2.53;;
13607;SDS011;6875;50.852;5.672;2024-02-23T04:56:15;2.77;;;1.50;;
13607;SDS011;6875;50.852;5.672;2024-02-23T04:58:42;4.23;;;1.60;;
13607;SDS011;6875;50.852;5.672;2024-02-23T05:01:09;10.53;;;2.77;;
13607;SDS011;6875;50.852;5.672;2024-02-23T05:03:36;5.40;;;1.63;;
13607;SDS011;6875;50.852;5.672;2024-02-23T05:06:05;3.63;;;1.50;;
13607;SDS011;6875;50.852;5.672;2024-02-23T05:08:31;7.87;;;1.90;;
13607;SDS011;6875;50.852;5.672;2024-02-23T05:10:58;3.83;;;1.30;;
13607;SDS011;6875;50.852;5.672;2024-02-23T05:13:25;4.33;;;1.50;;
13607;SDS011;6875;50.852;5.672;2024-02-23T05:15:51;6.17;;;1.63;;
13607;SDS011;6875;50.852;5.672;2024-02-23T05:18:19;5.30;;;1.57;;
13607;SDS011;6875;50.852;5.672;2024-02-23T05:20:45;4.53;;;1.67;;
13607;SDS011;6875;50.852;5.672;2024-02-23T05:23:13;9.20;;;1.73;;
13607;SDS011;6875;50.852;5.672;2024-02-23T05:25:41;5.87;;;1.60;;
13607;SDS011;6875;50.852;5.672;2024-02-23T05:28:08;7.10;;;1.40;;
13607;SDS011;6875;50.852;5.672;2024-02-23T05:30:34;5.83;;;1.30;;
13607;SDS011;6875;50.852;5.672;2024-02-23T05:33:02;5.03;;;1.30;;
13607;SDS011;6875;50.852;5.672;2024-02-23T05:35:28;3.50;;;1.40;;
13607;SDS011;6875;50.852;5.672;2024-02-23T05:37:55;7.83;;;1.70;;
13607;SDS011;6875;50.852;5.672;2024-02-23T05:40:23;4.17;;;1.70;;
13607;SDS011;6875;50.852;5.672;2024-02-23T05:42:50;7.70;;;2.73;;
13607;SDS011;6875;50.852;5.672;2024-02-23T05:45:16;5.13;;;1.57;;
13607;SDS011;6875;50.852;5.672;2024-02-23T05:47:43;7.57;;;1.53;;
13607;SDS011;6875;50.852;5.672;2024-02-23T05:50:10;4.90;;;1.60;;
13607;SDS011;6875;50.852;5.672;2024-02-23T05:52:37;3.73;;;1.30;;
13607;SDS011;6875;50.852;5.672;2024-02-23T05:55:04;5.80;;;1.50;;
13607;SDS011;6875;50.852;5.672;2024-02-23T05:57:32;5.43;;;1.37;;
13607;SDS011;6875;50.852;5.672;2024-02-23T05:59:59;5.23;;;1.90;;
13607;SDS011;6875;50.852;5.672;2024-02-23T06:02:25;5.83;;;1.67;;
13607;SDS011;6875;50.852;5.672;2024-02-23T06:04:52;5.27;;;1.60;;
13607;SDS011;6875;50.852;5.672;2024-02-23T06:07:19;4.13;;;1.50;;
13607;SDS011;6875;50.852;5.672;2024-02-23T06:09:52;5.03;;;1.90;;
13607;SDS011;6875;50.852;5.672;2024-02-23T06:12:18;7.07;;;2.40;;
13607;SDS011;6875;50.852;5.672;2024-02-23T06:14:46;7.87;;;2.00;;
13607;SDS011;6875;50.852;5.672;2024-02-23T06:17:13;5.13;;;2.20;;
13607;SDS011;6875;50.852;5.672;2024-02-23T06:19:39;6.80;;;2.27;;
13607;SDS011;6875;50.852;5.672;2024-02-23T06:22:06;5.93;;;2.00;;
13607;SDS011;6875;50.852;5.672;2024-02-23T06:24:35;4.70;;;2.10;;
13607;SDS011;6875;50.852;5.672;2024-02-23T06:27:01;3.93;;;1.83;;
13607;SDS011;6875;50.852;5.672;2024-02-23T06:29:28;8.40;;;2.07;;
13607;SDS011;6875;50.852;5.672;2024-02-23T06:31:56;5.30;;;1.90;;
13607;SDS011;6875;50.852;5.672;2024-02-23T06:34:22;5.07;;;1.57;;
13607;SDS011;6875;50.852;5.672;2024-02-23T06:36:50;4.83;;;1.40;;
13607;SDS011;6875;50.852;5.672;2024-02-23T06:39:16;5.53;;;1.70;;
13607;SDS011;6875;50.852;5.672;2024-02-23T06:41:43;9.20;;;2.10;;
13607;SDS011;6875;50.852;5.672;2024-02-23T06:44:10;9.90;;;1.90;;
13607;SDS011;6875;50.852;5.672;2024-02-23T06:46:36;3.87;;;1.47;;
13607;SDS011;6875;50.852;5.672;2024-02-23T06:49:04;7.47;;;1.73;;
13607;SDS011;6875;50.852;5.672;2024-02-23T06:51:31;4.60;;;1.50;;
13607;SDS011;6875;50.852;5.672;2024-02-23T06:53:57;6.53;;;2.23;;
13607;SDS011;6875;50.852;5.672;2024-02-23T06:56:24;8.37;;;1.67;;
13607;SDS011;6875;50.852;5.672;2024-02-23T06:58:51;6.33;;;1.33;;
13607;SDS011;6875;50.852;5.672;2024-02-23T07:01:18;3.07;;;1.30;;
13607;SDS011;6875;50.852;5.672;2024-02-23T07:03:46;7.67;;;1.93;;
13607;SDS011;6875;50.852;5.672;2024-02-23T07:06:17;8.53;;;1.57;;
13607;SDS011;6875;50.852;5.672;2024-02-23T07:08:44;3.77;;;1.30;;
13607;SDS011;6875;50.852;5.672;2024-02-23T07:11:10;5.40;;;1.33;;
13607;SDS011;6875;50.852;5.672;2024-02-23T07:13:37;6.90;;;1.47;;
13607;SDS011;6875;50.852;5.672;2024-02-23T07:16:05;6.97;;;1.77;;
13607;SDS011;6875;50.852;5.672;2024-02-23T07:18:32;6.47;;;1.70;;
13607;SDS011;6875;50.852;5.672;2024-02-23T07:20:58;4.10;;;1.57;;
13607;SDS011;6875;50.852;5.672;2024-02-23T07:23:27;5.17;;;1.47;;
13607;SDS011;6875;50.852;5.672;2024-02-23T07:25:53;4.53;;;1.33;;
13607;SDS011;6875;50.852;5.672;2024-02-23T07:28:20;10.77;;;2.30;;
13607;SDS011;6875;50.852;5.672;2024-02-23T07:30:48;3.90;;;1.30;;
13607;SDS011;6875;50.852;5.672;2024-02-23T07:33:16;5.07;;;1.50;;
13607;SDS011;6875;50.852;5.672;2024-02-23T07:35:42;4.13;;;1.40;;
13607;SDS011;6875;50.852;5.672;2024-02-23T07:38:09;7.97;;;1.70;;
13607;SDS011;6875;50.852;5.672;2024-02-23T07:40:37;4.63;;;1.00;;
13607;SDS011;6875;50.852;5.672;2024-02-23T07:43:04;9.00;;;1.83;;
13607;SDS011;6875;50.852;5.672;2024-02-23T07:45:31;4.30;;;1.70;;
13607;SDS011;6875;50.852;5.672;2024-02-23T07:47:59;5.20;;;1.43;;
13607;SDS011;6875;50.852;5.672;2024-02-23T07:50:26;8.20;;;1.60;;
13607;SDS011;6875;50.852;5.672;2024-02-23T07:52:52;10.53;;;2.03;;
13607;SDS011;6875;50.852;5.672;2024-02-23T07:55:19;5.83;;;1.93;;
13607;SDS011;6875;50.852;5.672;2024-02-23T07:57:47;3.03;;;1.43;;
13607;SDS011;6875;50.852;5.672;2024-02-23T08:00:14;6.47;;;1.40;;
13607;SDS011;6875;50.852;5.672;2024-02-23T08:02:41;6.77;;;2.03;;
13607;SDS011;6875;50.852;5.672;2024-02-23T08:05:08;5.43;;;1.57;;
13607;SDS011;6875;50.852;5.672;2024-02-23T08:07:35;4.03;;;1.50;;
13607;SDS011;6875;50.852;5.672;2024-02-23T08:10:01;6.73;;;1.80;;
13607;SDS011;6875;50.852;5.672;2024-02-23T08:12:30;5.03;;;1.37;;
13607;SDS011;6875;50.852;5.672;2024-02-23T08:14:58;5.93;;;1.63;;
13607;SDS011;6875;50.852;5.672;2024-02-23T08:17:24;8.67;;;1.63;;
13607;SDS011;6875;50.852;5.672;2024-02-23T08:19:51;7.10;;;1.43;;
13607;SDS011;6875;50.852;5.672;2024-02-23T08:22:17;11.10;;;2.00;;
13607;SDS011;6875;50.852;5.672;2024-02-23T08:24:44;6.67;;;1.60;;
13607;SDS011;6875;50.852;5.672;2024-02-23T08:27:11;11.67;;;2.03;;
13607;SDS011;6875;50.852;5.672;2024-02-23T08:29:38;2.80;;;1.30;;
13607;SDS011;6875;50.852;5.672;2024-02-23T08:32:06;3.70;;;1.70;;
13607;SDS011;6875;50.852;5.672;2024-02-23T08:34:33;3.47;;;1.33;;
13607;SDS011;6875;50.852;5.672;2024-02-23T08:37:00;4.47;;;1.37;;
13607;SDS011;6875;50.852;5.672;2024-02-23T08:39:27;6.53;;;2.03;;
13607;SDS011;6875;50.852;5.672;2024-02-23T08:41:54;8.40;;;1.40;;
13607;SDS011;6875;50.852;5.672;2024-02-23T08:44:20;6.60;;;1.23;;
13607;SDS011;6875;50.852;5.672;2024-02-23T08:46:47;6.53;;;1.33;;
13607;SDS011;6875;50.852;5.672;2024-02-23T08:49:15;5.47;;;1.43;;
13607;SDS011;6875;50.852;5.672;2024-02-23T08:51:42;8.70;;;1.70;;
13607;SDS011;6875;50.852;5.672;2024-02-23T08:54:08;6.13;;;1.23;;
13607;SDS011;6875;50.852;5.672;2024-02-23T08:56:36;4.87;;;1.57;;
13607;SDS011;6875;50.852;5.672;2024-02-23T08:59:03;6.83;;;1.50;;
13607;SDS011;6875;50.852;5.672;2024-02-23T09:01:30;6.53;;;1.30;;
13607;SDS011;6875;50.852;5.672;2024-02-23T09:03:56;6.13;;;1.77;;
13607;SDS011;6875;50.852;5.672;2024-02-23T09:06:24;4.40;;;1.23;;
13607;SDS011;6875;50.852;5.672;2024-02-23T09:08:51;7.83;;;1.73;;
13607;SDS011;6875;50.852;5.672;2024-02-23T09:11:20;3.43;;;1.27;;
13607;SDS011;6875;50.852;5.672;2024-02-23T09:13:48;3.53;;;1.20;;
13607;SDS011;6875;50.852;5.672;2024-02-23T09:16:14;5.90;;;1.40;;
13607;SDS011;6875;50.852;5.672;2024-02-23T09:18:41;7.33;;;2.03;;
13607;SDS011;6875;50.852;5.672;2024-02-23T09:21:08;4.20;;;1.43;;
13607;SDS011;6875;50.852;5.672;2024-02-23T09:23:35;5.60;;;1.90;;
13607;SDS011;6875;50.852;5.672;2024-02-23T09:26:08;3.93;;;1.40;;
13607;SDS011;6875;50.852;5.672;2024-02-23T09:28:35;6.13;;;1.50;;
13607;SDS011;6875;50.852;5.672;2024-02-23T09:31:01;5.67;;;1.40;;
13607;SDS011;6875;50.852;5.672;2024-02-23T09:33:28;4.67;;;1.53;;
13607;SDS011;6875;50.852;5.672;2024-02-23T09:35:55;5.93;;;1.80;;
13607;SDS011;6875;50.852;5.672;2024-02-23T09:38:24;5.20;;;1.63;;
13607;SDS011;6875;50.852;5.672;2024-02-23T09:40:52;4.57;;;1.50;;
13607;SDS011;6875;50.852;5.672;2024-02-23T09:43:19;7.43;;;1.47;;
13607;SDS011;6875;50.852;5.672;2024-02-23T09:45:47;3.93;;;1.40;;
13607;SDS011;6875;50.852;5.672;2024-02-23T09:48:13;7.70;;;1.50;;
13607;SDS011;6875;50.852;5.672;2024-02-23T09:50:40;6.90;;;1.67;;
13607;SDS011;6875;50.852;5.672;2024-02-23T09:53:08;6.13;;;1.40;;
13607;SDS011;6875;50.852;5.672;2024-02-23T09:55:36;7.13;;;1.20;;
13607;SDS011;6875;50.852;5.672;2024-02-23T09:58:04;8.20;;;2.50;;
13607;SDS011;6875;50.852;5.672;2024-02-23T10:00:32;10.13;;;1.67;;
13607;SDS011;6875;50.852;5.672;2024-02-23T10:03:01;4.57;;;1.60;;
13607;SDS011;6875;50.852;5.672;2024-02-23T10:05:29;10.17;;;1.70;;
13607;SDS011;6875;50.852;5.672;2024-02-23T10:07:56;5.07;;;1.33;;
13607;SDS011;6875;50.852;5.672;2024-02-23T10:10:24;5.37;;;1.40;;
13607;SDS011;6875;50.852;5.672;2024-02-23T10:12:52;3.30;;;1.43;;
13607;SDS011;6875;50.852;5.672;2024-02-23T10:15:19;5.97;;;1.60;;
13607;SDS011;6875;50.852;5.672;2024-02-23T10:17:46;8.53;;;1.43;;
13607;SDS011;6875;50.852;5.672;2024-02-23T10:20:13;4.90;;;1.40;;
13607;SDS011;6875;50.852;5.672;2024-02-23T10:22:40;5.07;;;1.30;;
13607;SDS011;6875;50.852;5.672;2024-02-23T10:25:07;4.30;;;1.67;;
13607;SDS011;6875;50.852;5.672;2024-02-23T10:27:34;4.10;;;1.00;;
13607;SDS011;6875;50.852;5.672;2024-02-23T10:30:00;4.13;;;1.30;;
13607;SDS011;6875;50.852;5.672;2024-02-23T10:32:29;4.03;;;1.40;;
13607;SDS011;6875;50.852;5.672;2024-02-23T10:34:57;4.83;;;1.30;;
13607;SDS011;6875;50.852;5.672;2024-02-23T10:37:29;2.90;;;1.20;;
13607;SDS011;6875;50.852;5.672;2024-02-23T10:39:57;4.93;;;1.43;;
13607;SDS011;6875;50.852;5.672;2024-02-23T10:42:24;3.37;;;1.13;;
13607;SDS011;6875;50.852;5.672;2024-02-23T10:44:53;6.07;;;1.70;;
13607;SDS011;6875;50.852;5.672;2024-02-23T10:47:21;8.23;;;1.63;;
13607;SDS011;6875;50.852;5.672;2024-02-23T10:49:49;3.33;;;1.10;;
13607;SDS011;6875;50.852;5.672;2024-02-23T10:52:15;3.00;;;0.93;;
13607;SDS011;6875;50.852;5.672;2024-02-23T10:54:44;5.53;;;1.40;;
13607;SDS011;6875;50.852;5.672;2024-02-23T10:57:12;3.40;;;1.30;;
13607;SDS011;6875;50.852;5.672;2024-02-23T10:59:39;3.50;;;1.10;;
13607;SDS011;6875;50.852;5.672;2024-02-23T11:02:06;3.43;;;1.50;;
13607;SDS011;6875;50.852;5.672;2024-02-23T11:04:33;4.60;;;1.23;;
13607;SDS011;6875;50.852;5.672;2024-02-23T11:07:02;4.00;;;1.20;;
13607;SDS011;6875;50.852;5.672;2024-02-23T11:09:32;5.93;;;1.60;;
13607;SDS011;6875;50.852;5.672;2024-02-23T11:12:03;5.07;;;1.27;;
13607;SDS011;6875;50.852;5.672;2024-02-23T11:14:31;6.77;;;1.63;;
13607;SDS011;6875;50.852;5.672;2024-02-23T11:16:58;4.50;;;1.53;;
13607;SDS011;6875;50.852;5.672;2024-02-23T11:19:31;4.30;;;1.27;;
13607;SDS011;6875;50.852;5.672;2024-02-23T11:21:58;2.63;;;1.50;;
13607;SDS011;6875;50.852;5.672;2024-02-23T11:24:28;4.63;;;1.43;;
13607;SDS011;6875;50.852;5.672;2024-02-23T11:26:56;3.17;;;1.47;;
13607;SDS011;6875;50.852;5.672;2024-02-23T11:29:25;4.40;;;1.57;;
13607;SDS011;6875;50.852;5.672;2024-02-23T11:31:52;5.33;;;1.67;;
13607;SDS011;6875;50.852;5.672;2024-02-23T11:34:21;7.13;;;1.93;;
13607;SDS011;6875;50.852;5.672;2024-02-23T11:36:50;5.37;;;1.40;;
13607;SDS011;6875;50.852;5.672;2024-02-23T11:39:18;4.50;;;1.50;;
13607;SDS011;6875;50.852;5.672;2024-02-23T11:41:48;5.07;;;1.50;;
13607;SDS011;6875;50.852;5.672;2024-02-23T11:44:15;4.33;;;1.60;;
13607;SDS011;6875;50.852;5.672;2024-02-23T11:46:42;3.70;;;1.30;;
13607;SDS011;6875;50.852;5.672;2024-02-23T11:49:10;5.50;;;1.30;;
13607;SDS011;6875;50.852;5.672;2024-02-23T11:51:36;4.73;;;1.23;;
13607;SDS011;6875;50.852;5.672;2024-02-23T11:54:03;5.47;;;1.43;;
13607;SDS011;6875;50.852;5.672;2024-02-23T11:56:30;3.37;;;1.23;;
13607;SDS011;6875;50.852;5.672;2024-02-23T11:58:58;5.73;;;1.37;;
13607;SDS011;6875;50.852;5.672;2024-02-23T12:01:25;4.47;;;1.17;;
13607;SDS011;6875;50.852;5.672;2024-02-23T12:03:51;3.10;;;1.00;;
13607;SDS011;6875;50.852;5.672;2024-02-23T12:06:18;4.23;;;1.20;;
13607;SDS011;6875;50.852;5.672;2024-02-23T12:08:44;4.17;;;1.23;;
13607;SDS011;6875;50.852;5.672;2024-02-23T12:11:11;3.60;;;1.10;;
13607;SDS011;6875;50.852;5.672;2024-02-23T12:13:38;4.47;;;1.20;;
13607;SDS011;6875;50.852;5.672;2024-02-23T12:16:08;4.23;;;1.00;;
13607;SDS011;6875;50.852;5.672;2024-02-23T12:18:35;4.03;;;1.17;;
13607;SDS011;6875;50.852;5.672;2024-02-23T12:21:01;5.63;;;1.40;;
13607;SDS011;6875;50.852;5.672;2024-02-23T12:23:37;4.27;;;1.40;;
13607;SDS011;6875;50.852;5.672;2024-02-23T12:26:05;6.90;;;1.50;;
13607;SDS011;6875;50.852;5.672;2024-02-23T12:28:32;5.53;;;1.20;;
13607;SDS011;6875;50.852;5.672;2024-02-23T12:30:59;2.43;;;1.10;;
13607;SDS011;6875;50.852;5.672;2024-02-23T12:33:28;4.20;;;1.17;;
13607;SDS011;6875;50.852;5.672;2024-02-23T12:35:55;9.90;;;1.40;;
13607;SDS011;6875;50.852;5.672;2024-02-23T12:38:22;3.90;;;1.13;;
13607;SDS011;6875;50.852;5.672;2024-02-23T12:40:50;3.43;;;1.27;;
13607;SDS011;6875;50.852;5.672;2024-02-23T12:43:16;3.13;;;1.00;;
13607;SDS011;6875;50.852;5.672;2024-02-23T12:45:43;6.23;;;1.33;;
13607;SDS011;6875;50.852;5.672;2024-02-23T12:48:14;4.43;;;1.00;;
13607;SDS011;6875;50.852;5.672;2024-02-23T12:50:41;1.43;;;0.87;;
13607;SDS011;6875;50.852;5.672;2024-02-23T12:53:09;3.13;;;0.80;;
13607;SDS011;6875;50.852;5.672;2024-02-23T12:55:36;5.87;;;1.43;;
13607;SDS011;6875;50.852;5.672;2024-02-23T12:58:03;3.50;;;1.13;;
13607;SDS011;6875;50.852;5.672;2024-02-23T13:00:29;3.80;;;0.97;;
13607;SDS011;6875;50.852;5.672;2024-02-23T13:02:56;5.30;;;1.80;;
13607;SDS011;6875;50.852;5.672;2024-02-23T13:05:22;2.97;;;1.03;;
13607;SDS011;6875;50.852;5.672;2024-02-23T13:07:52;3.73;;;1.13;;
13607;SDS011;6875;50.852;5.672;2024-02-23T13:10:19;4.63;;;1.20;;
13607;SDS011;6875;50.852;5.672;2024-02-23T13:12:45;2.97;;;1.10;;
13607;SDS011;6875;50.852;5.672;2024-02-23T13:15:12;2.33;;;1.10;;
13607;SDS011;6875;50.852;5.672;2024-02-23T13:17:40;5.90;;;1.43;;
13607;SDS011;6875;50.852;5.672;2024-02-23T13:20:09;3.60;;;0.87;;
13607;SDS011;6875;50.852;5.672;2024-02-23T13:22:37;4.50;;;0.90;;
13607;SDS011;6875;50.852;5.672;2024-02-23T13:25:06;4.50;;;1.20;;
13607;SDS011;6875;50.852;5.672;2024-02-23T13:27:33;6.60;;;1.17;;
13607;SDS011;6875;50.852;5.672;2024-02-23T13:29:59;2.13;;;1.10;;
13607;SDS011;6875;50.852;5.672;2024-02-23T13:32:26;2.63;;;1.00;;
13607;SDS011;6875;50.852;5.672;2024-02-23T13:34:52;5.90;;;1.20;;
13607;SDS011;6875;50.852;5.672;2024-02-23T13:37:19;3.33;;;1.20;;
13607;SDS011;6875;50.852;5.672;2024-02-23T13:39:45;3.43;;;1.03;;
13607;SDS011;6875;50.852;5.672;2024-02-23T13:42:14;4.83;;;1.20;;
13607;SDS011;6875;50.852;5.672;2024-02-23T13:44:41;2.87;;;1.10;;
13607;SDS011;6875;50.852;5.672;2024-02-23T13:47:08;4.97;;;1.37;;
13607;SDS011;6875;50.852;5.672;2024-02-23T13:49:34;3.43;;;0.80;;
13607;SDS011;6875;50.852;5.672;2024-02-23T13:52:01;4.40;;;1.60;;
13607;SDS011;6875;50.852;5.672;2024-02-23T13:54:30;3.00;;;0.90;;
13607;SDS011;6875;50.852;5.672;2024-02-23T13:56:56;4.17;;;1.07;;
13607;SDS011;6875;50.852;5.672;2024-02-23T13:59:24;2.07;;;1.00;;
13607;SDS011;6875;50.852;5.672;2024-02-23T14:01:51;5.43;;;1.07;;
13607;SDS011;6875;50.852;5.672;2024-02-23T14:04:18;6.77;;;1.30;;
13607;SDS011;6875;50.852;5.672;2024-02-23T14:06:44;4.50;;;1.17;;
13607;SDS011;6875;50.852;5.672;2024-02-23T14:09:11;3.77;;;1.17;;
13607;SDS011;6875;50.852;5.672;2024-02-23T14:11:38;6.43;;;1.77;;
13607;SDS011;6875;50.852;5.672;2024-02-23T14:14:05;2.30;;;0.90;;
13607;SDS011;6875;50.852;5.672;2024-02-23T14:16:34;4.87;;;1.17;;
13607;SDS011;6875;50.852;5.672;2024-02-23T14:19:00;4.17;;;1.30;;
13607;SDS011;6875;50.852;5.672;2024-02-23T14:21:27;4.03;;;1.10;;
13607;SDS011;6875;50.852;5.672;2024-02-23T14:23:54;2.43;;;1.30;;
13607;SDS011;6875;50.852;5.672;2024-02-23T14:26:20;4.03;;;0.97;;
13607;SDS011;6875;50.852;5.672;2024-02-23T14:28:47;5.60;;;1.20;;
13607;SDS011;6875;50.852;5.672;2024-02-23T14:31:14;6.93;;;1.43;;
13607;SDS011;6875;50.852;5.672;2024-02-23T14:33:42;3.17;;;1.20;;
13607;SDS011;6875;50.852;5.672;2024-02-23T14:36:09;3.77;;;1.40;;
13607;SDS011;6875;50.852;5.672;2024-02-23T14:38:35;3.47;;;1.13;;
13607;SDS011;6875;50.852;5.672;2024-02-23T14:41:02;3.23;;;1.20;;
13607;SDS011;6875;50.852;5.672;2024-02-23T14:43:29;5.23;;;1.40;;
13607;SDS011;6875;50.852;5.672;2024-02-23T14:45:56;5.43;;;1.63;;
13607;SDS011;6875;50.852;5.672;2024-02-23T14:48:23;3.03;;;1.50;;
13607;SDS011;6875;50.852;5.672;2024-02-23T14:50:51;4.17;;;1.50;;
13607;SDS011;6875;50.852;5.672;2024-02-23T14:53:17;3.93;;;1.57;;
13607;SDS011;6875;50.852;5.672;2024-02-23T14:55:44;2.73;;;1.53;;
13607;SDS011;6875;50.852;5.672;2024-02-23T14:58:11;6.60;;;1.40;;
13607;SDS011;6875;50.852;5.672;2024-02-23T15:00:38;4.03;;;1.90;;